Time;durP1;ratioP1;P1;durP2;ratioP2;P2;SDS_P1;SDS_P2;PMS_P1;PMS_P2;Temp;Humidity;BMP_temperature;BMP_pressure;BME280_temperature;BME280_humidity;BME280_pressure;Samples;Min_cycle;Max_cycle;Signal;HPM_P1;HPM_P2
2023/10/10 00:00:23;;;;;;;10.38;6.18;;;16.10;99.90;;;;;;5023744;28;20045;-81
2023/10/10 00:02:51;;;;;;;11.95;6.28;;;16.10;99.90;;;;;;5013637;28;20736;-81
2023/10/10 00:05:18;;;;;;;10.32;6.00;;;16.10;99.90;;;;;;5021843;28;20060;-81
2023/10/10 00:07:44;;;;;;;15.80;6.32;;;16.10;99.90;;;;;;5021601;28;20157;-81
2023/10/10 00:10:13;;;;;;;10.55;6.72;;;16.10;99.90;;;;;;5016836;28;20116;-81
2023/10/10 00:12:39;;;;;;;9.82;6.80;;;16.10;99.90;;;;;;5019482;28;20145;-81
2023/10/10 00:15:12;;;;;;;12.37;7.13;;;16.10;99.90;;;;;;5014598;28;20050;-81
2023/10/10 00:17:37;;;;;;;12.07;7.50;;;16.10;99.90;;;;;;5020892;28;20323;-82
2023/10/10 00:20:22;;;;;;;13.45;7.00;;;16.10;99.90;;;;;;5022216;28;20046;-82
2023/10/10 00:22:48;;;;;;;9.98;7.18;;;16.10;99.90;;;;;;5022092;28;20132;-82
2023/10/10 00:25:17;;;;;;;12.05;7.03;;;16.10;99.90;;;;;;5017128;28;20049;-82
2023/10/10 00:27:55;;;;;;;12.52;7.65;;;16.20;99.90;;;;;;5019539;28;20392;-82
2023/10/10 00:30:22;;;;;;;12.32;7.47;;;16.20;99.90;;;;;;5031966;28;20046;-82
2023/10/10 00:32:50;;;;;;;14.93;7.88;;;16.10;99.90;;;;;;5012676;28;20056;-82
2023/10/10 00:35:17;;;;;;;12.82;7.90;;;16.10;99.90;;;;;;5022986;28;20041;-82
2023/10/10 00:37:45;;;;;;;17.23;9.13;;;16.20;99.90;;;;;;5026568;28;20590;-82
2023/10/10 00:40:15;;;;;;;11.52;8.00;;;16.10;99.90;;;;;;5020812;28;20045;-82
2023/10/10 00:42:41;;;;;;;12.85;8.07;;;16.20;99.90;;;;;;5016092;28;20045;-82
2023/10/10 00:45:12;;;;;;;15.63;9.98;;;16.10;99.90;;;;;;5016455;28;20057;-83
2023/10/10 00:47:43;;;;;;;15.57;10.20;;;16.10;99.90;;;;;;5016241;28;20587;-82
2023/10/10 00:50:15;;;;;;;16.77;10.32;;;16.10;99.90;;;;;;5018684;28;20156;-82
2023/10/10 00:52:46;;;;;;;14.27;10.60;;;16.20;99.90;;;;;;5019720;28;20057;-83
2023/10/10 00:55:12;;;;;;;18.58;10.60;;;16.20;99.90;;;;;;5010661;28;20045;-82
2023/10/10 00:57:39;;;;;;;15.48;10.35;;;16.20;99.90;;;;;;5022341;28;20053;-82
2023/10/10 01:00:15;;;;;;;16.20;10.50;;;16.10;99.90;;;;;;5018968;28;20156;-82
2023/10/10 01:02:42;;;;;;;12.88;10.35;;;16.10;99.90;;;;;;5007854;28;20072;-82
2023/10/10 01:05:16;;;;;;;16.90;10.95;;;16.10;99.90;;;;;;5016868;28;20049;-82
2023/10/10 01:07:47;;;;;;;15.25;10.18;;;16.10;99.90;;;;;;5025907;28;20401;-82
2023/10/10 01:10:16;;;;;;;17.23;12.20;;;16.10;99.90;;;;;;5018932;28;20057;-82
2023/10/10 01:12:44;;;;;;;16.88;10.27;;;16.10;99.90;;;;;;4997029;28;20191;-82
2023/10/10 01:15:24;;;;;;;;;;;16.10;99.90;;;;;;5026851;28;20128;-82
2023/10/10 01:17:50;;;;;;;14.40;11.10;;;16.10;99.90;;;;;;5017854;28;19960;-82
2023/10/10 01:20:34;;;;;;;13.25;10.65;;;16.10;99.90;;;;;;5017025;28;20046;-82
2023/10/10 01:23:02;;;;;;;12.80;9.60;;;16.10;99.90;;;;;;5018638;28;20047;-82
2023/10/10 01:28:41;;;;;;;15.82;10.35;;;16.10;99.90;;;;;;5020727;28;20052;-80
2023/10/10 01:31:04;;;;;;;12.13;10.35;;;16.10;99.90;;;;;;5024709;28;20494;-81
2023/10/10 01:36:00;;;;;;;13.80;9.30;;;16.10;99.90;;;;;;5024363;28;20045;-82
2023/10/10 01:38:56;;;;;;;15.60;9.93;;;16.10;99.90;;;;;;5023666;28;20139;-82
2023/10/10 01:41:31;;;;;;;14.13;9.85;;;16.10;99.90;;;;;;5023649;28;20051;-82
2023/10/10 01:44:13;;;;;;;14.88;10.13;;;16.10;99.90;;;;;;5020116;28;20535;-82
2023/10/10 01:46:42;;;;;;;13.57;9.45;;;16.10;99.90;;;;;;5014370;28;20085;-82
2023/10/10 01:49:29;;;;;;;15.00;9.77;;;16.10;99.90;;;;;;5026634;28;20095;-82
2023/10/10 01:52:04;;;;;;;14.65;9.75;;;16.10;99.90;;;;;;5022708;28;20112;-82
2023/10/10 01:54:39;;;;;;;14.25;10.50;;;16.10;99.90;;;;;;5031535;28;20392;-82
2023/10/10 01:57:07;;;;;;;13.07;9.10;;;16.10;99.90;;;;;;5019498;28;20448;-82
2023/10/10 01:59:35;;;;;;;14.23;10.02;;;16.10;99.90;;;;;;5015648;28;20042;-81
2023/10/10 02:02:07;;;;;;;14.90;9.43;;;16.10;99.90;;;;;;5022072;28;20448;-81
2023/10/10 02:04:35;;;;;;;16.02;9.68;;;16.10;99.90;;;;;;5016913;28;20136;-81
2023/10/10 02:07:05;;;;;;;12.68;9.32;;;16.10;99.90;;;;;;5024371;28;20038;-81
2023/10/10 02:09:34;;;;;;;14.25;9.52;;;16.10;99.90;;;;;;5025061;28;20124;-81
2023/10/10 02:12:16;;;;;;;14.35;9.15;;;16.10;99.90;;;;;;5024250;28;20052;-81
2023/10/10 02:14:43;;;;;;;13.48;8.63;;;16.10;99.90;;;;;;5025795;28;20049;-81
2023/10/10 02:17:24;;;;;;;13.00;8.53;;;16.10;99.90;;;;;;5022571;28;20083;-82
2023/10/10 02:19:54;;;;;;;15.00;8.85;;;16.10;99.90;;;;;;5018728;28;20050;-82
2023/10/10 02:22:23;;;;;;;12.25;8.57;;;16.10;99.90;;;;;;5022036;28;20110;-82
2023/10/10 02:25:15;;;;;;;12.40;8.55;;;16.10;99.90;;;;;;5015635;28;20049;-81
2023/10/10 02:27:53;;;;;;;10.75;8.13;;;16.10;99.90;;;;;;5018689;28;20580;-82
2023/10/10 02:30:23;;;;;;;17.33;8.63;;;16.10;99.90;;;;;;5027266;28;20512;-82
2023/10/10 02:32:49;;;;;;;16.05;8.25;;;16.10;99.90;;;;;;5025877;28;20044;-82
2023/10/10 02:35:16;;;;;;;10.50;8.05;;;16.10;99.90;;;;;;5024907;28;20041;-82
2023/10/10 02:37:45;;;;;;;12.85;7.97;;;16.10;99.90;;;;;;4988145;28;1109439;-82
2023/10/10 02:40:15;;;;;;;12.88;8.40;;;16.10;99.90;;;;;;5022449;28;20053;-82
2023/10/10 02:42:50;;;;;;;16.00;9.65;;;16.10;99.90;;;;;;5022572;28;20056;-82
2023/10/10 02:45:17;;;;;;;9.07;8.07;;;16.10;99.90;;;;;;5020618;28;20045;-82
2023/10/10 02:47:52;;;;;;;14.32;9.15;;;16.10;99.90;;;;;;5020031;28;20403;-82
2023/10/10 02:50:40;;;;;;;10.75;7.80;;;16.10;99.90;;;;;;5027245;28;20045;-82
2023/10/10 02:53:07;;;;;;;14.52;8.60;;;16.10;99.90;;;;;;5015610;28;20056;-81
2023/10/10 02:55:41;;;;;;;11.63;8.63;;;16.10;99.90;;;;;;5019787;28;20045;-82
2023/10/10 02:58:20;;;;;;;13.63;8.32;;;16.10;99.90;;;;;;5025854;28;20065;-81
2023/10/10 03:00:50;;;;;;;12.48;8.48;;;16.10;99.90;;;;;;5021190;28;20034;-82
2023/10/10 03:03:18;;;;;;;13.05;8.32;;;16.10;99.90;;;;;;5014718;28;20491;-81
2023/10/10 03:05:50;;;;;;;12.45;9.00;;;16.10;99.90;;;;;;5023292;28;20455;-82
2023/10/10 03:08:34;;;;;;;11.45;8.25;;;16.10;99.90;;;;;;5021228;28;20049;-82
2023/10/10 03:11:01;;;;;;;15.40;9.23;;;16.10;99.90;;;;;;5014704;28;20046;-81
2023/10/10 03:13:35;;;;;;;12.68;8.63;;;16.00;99.90;;;;;;5015079;28;20042;-81
2023/10/10 03:17:06;;;;;;;12.70;8.38;;;16.10;99.90;;;;;;5022796;28;20092;-82
2023/10/10 03:21:35;;;;;;;14.98;9.63;;;16.00;99.90;;;;;;5039691;28;20123;-82
2023/10/10 03:24:15;;;;;;;12.95;8.95;;;16.00;99.90;;;;;;5018848;28;20046;-82
2023/10/10 03:29:21;;;;;;;11.48;8.15;;;16.00;99.90;;;;;;5018509;28;20050;-82
2023/10/10 03:32:19;;;;;;;11.82;9.15;;;15.90;99.90;;;;;;5019029;28;20715;-81
2023/10/10 03:34:45;;;;;;;11.05;7.97;;;15.90;99.90;;;;;;5024439;28;20056;-82
2023/10/10 03:37:28;;;;;;;11.77;7.72;;;15.90;99.90;;;;;;5019925;28;20384;-80
2023/10/10 03:39:58;;;;;;;12.75;8.70;;;15.90;99.90;;;;;;5025534;28;20064;-82
2023/10/10 05:24:09;;;;;;;21.05;17.40;;;15.60;99.90;;;;;;5021746;28;20103;-81
2023/10/10 05:26:46;;;;;;;19.30;16.90;;;15.60;99.90;;;;;;5025192;28;20508;-81
2023/10/10 05:29:19;;;;;;;20.30;18.08;;;15.60;99.90;;;;;;5016749;28;20038;-81
2023/10/10 05:31:46;;;;;;;21.58;18.42;;;15.60;99.90;;;;;;5015228;28;20370;-83
2023/10/10 05:34:14;;;;;;;23.10;18.88;;;15.60;99.90;;;;;;5020510;28;20129;-81
2023/10/10 05:36:42;;;;;;;20.95;18.75;;;15.60;99.90;;;;;;5018165;28;20523;-81
2023/10/10 05:39:11;;;;;;;21.98;19.13;;;15.60;99.90;;;;;;5021430;28;20056;-81
2023/10/10 05:41:40;;;;;;;24.45;20.58;;;15.60;99.90;;;;;;5014483;28;20049;-79
2023/10/10 05:44:08;;;;;;;25.08;21.30;;;15.60;99.90;;;;;;5017272;28;20124;-82
2023/10/10 05:46:35;;;;;;;25.27;20.85;;;15.60;99.90;;;;;;5022590;28;20080;-82
2023/10/10 05:49:01;;;;;;;27.58;22.50;;;15.60;99.90;;;;;;5026358;28;20497;-82
2023/10/10 05:51:26;;;;;;;23.77;21.23;;;15.60;99.90;;;;;;5016604;28;20505;-83
2023/10/10 05:53:52;;;;;;;24.52;21.85;;;15.50;99.90;;;;;;5024779;28;20115;-83
2023/10/10 05:56:18;;;;;;;27.83;23.42;;;15.50;99.90;;;;;;5018011;28;20050;-82
2023/10/10 05:58:47;;;;;;;25.77;23.00;;;15.50;99.90;;;;;;5022207;28;20064;-83
2023/10/10 06:01:13;;;;;;;24.52;22.02;;;15.50;99.90;;;;;;5023519;28;20037;-82
2023/10/10 06:03:41;;;;;;;29.60;23.38;;;15.50;99.90;;;;;;5040428;28;20049;-83
2023/10/10 06:06:11;;;;;;;24.58;22.00;;;15.50;99.90;;;;;;5025708;28;20035;-83
2023/10/10 06:08:38;;;;;;;29.27;23.33;;;15.50;99.90;;;;;;5024371;28;20061;-83
2023/10/10 06:11:06;;;;;;;25.10;22.48;;;15.50;99.90;;;;;;5023718;28;20045;-83
2023/10/10 06:13:36;;;;;;;26.88;23.80;;;15.50;99.90;;;;;;5028063;28;20098;-84
2023/10/10 06:16:12;;;;;;;30.38;23.98;;;15.40;99.90;;;;;;5023211;28;20042;-83
2023/10/10 06:18:41;;;;;;;31.73;24.85;;;15.50;99.90;;;;;;5017571;28;20500;-83
2023/10/10 06:21:07;;;;;;;31.58;24.73;;;15.50;99.90;;;;;;5025639;28;20041;-84
2023/10/10 06:23:35;;;;;;;28.90;24.90;;;15.50;99.90;;;;;;5028437;28;20503;-84
2023/10/10 06:26:01;;;;;;;30.17;25.83;;;15.40;99.90;;;;;;5024425;28;20057;-84
2023/10/10 06:28:28;;;;;;;28.95;25.95;;;15.50;99.90;;;;;;5016181;28;20132;-82
2023/10/10 06:30:55;;;;;;;30.48;26.88;;;15.50;99.90;;;;;;5023109;28;20045;-83
2023/10/10 06:33:28;;;;;;;29.30;25.13;;;15.50;99.90;;;;;;5028452;28;20517;-83
2023/10/10 06:39:18;;;;;;;28.98;25.67;;;15.50;99.90;;;;;;5017115;28;20054;-83
2023/10/10 06:41:50;;;;;;;28.20;25.13;;;15.50;99.90;;;;;;5019963;28;20054;-83
2023/10/10 06:47:08;;;;;;;28.90;25.90;;;15.60;99.90;;;;;;5020877;28;20107;-81
2023/10/10 06:49:44;;;;;;;27.92;24.65;;;15.60;99.90;;;;;;5028394;28;20072;-79
2023/10/10 06:52:18;;;;;;;27.55;23.67;;;15.70;99.90;;;;;;5024807;28;20096;-79
2023/10/10 06:54:45;;;;;;;28.88;25.45;;;15.70;99.90;;;;;;5021480;28;20057;-78
2023/10/10 06:57:19;;;;;;;26.95;24.10;;;15.70;99.90;;;;;;5025545;28;20039;-79
2023/10/10 06:59:45;;;;;;;30.65;25.88;;;15.80;99.90;;;;;;5021266;28;20552;-77
2023/10/10 07:02:19;;;;;;;32.20;27.25;;;15.80;99.90;;;;;;5021436;28;20481;-78
2023/10/10 07:04:52;;;;;;;29.95;25.00;;;15.80;99.90;;;;;;5023515;28;20057;-79
2023/10/10 07:07:19;;;;;;;31.52;26.70;;;15.90;99.90;;;;;;5019210;28;20041;-80
2023/10/10 07:09:45;;;;;;;30.70;25.92;;;15.90;99.90;;;;;;5022576;28;20054;-79
2023/10/10 07:12:11;;;;;;;29.05;25.85;;;16.00;99.90;;;;;;5029972;28;20049;-80
2023/10/10 07:14:43;;;;;;;29.83;26.08;;;16.00;99.90;;;;;;5023442;28;20103;-79
2023/10/10 07:17:12;;;;;;;30.50;26.27;;;16.10;99.90;;;;;;5021954;28;20041;-79
2023/10/10 07:22:36;;;;;;;34.78;27.73;;;16.20;99.90;;;;;;5019618;28;20056;-81
2023/10/10 07:25:31;;;;;;;32.90;28.63;;;16.20;99.90;;;;;;5014871;28;20424;-82
2023/10/10 07:27:57;;;;;;;39.40;30.83;;;16.30;99.90;;;;;;5025448;28;20060;-80
2023/10/10 07:30:33;;;;;;;38.65;33.08;;;16.30;99.90;;;;;;5026978;28;20049;-83
2023/10/10 07:33:02;;;;;;;38.92;33.10;;;16.30;99.90;;;;;;5022071;28;20428;-83
2023/10/10 07:35:28;;;;;;;41.90;33.42;;;16.40;99.90;;;;;;5040594;28;20078;-79
2023/10/10 07:37:58;;;;;;;40.55;33.33;;;16.40;99.90;;;;;;5017842;28;20073;-80
2023/10/10 07:40:31;;;;;;;39.58;33.45;;;16.40;99.90;;;;;;5023127;28;20042;-81
2023/10/10 07:43:00;;;;;;;45.22;36.67;;;16.40;99.90;;;;;;5014789;28;20137;-82
2023/10/10 07:45:28;;;;;;;45.63;37.58;;;16.50;99.90;;;;;;5024496;28;20053;-82
2023/10/10 07:50:26;;;;;;;48.13;39.80;;;16.50;99.90;;;;;;5022399;28;20053;-82
2023/10/10 07:52:53;;;;;;;52.47;39.40;;;16.50;99.90;;;;;;5031353;28;20485;-82
2023/10/10 07:55:22;;;;;;;54.28;42.25;;;16.60;99.90;;;;;;5023512;28;20578;-82
2023/10/10 07:57:59;;;;;;;50.40;40.83;;;16.60;99.90;;;;;;5024642;28;20496;-76
2023/10/10 08:00:39;;;;;;;50.33;42.08;;;16.60;99.90;;;;;;5030750;28;20116;-80
2023/10/10 08:03:06;;;;;;;51.67;43.08;;;16.70;99.90;;;;;;5019740;28;20058;-81
2023/10/10 08:05:32;;;;;;;54.55;43.10;;;16.70;99.90;;;;;;5032095;28;20056;-79
2023/10/10 08:08:05;;;;;;;49.25;41.40;;;16.80;99.90;;;;;;5027412;28;20109;-80
2023/10/10 08:10:38;;;;;;;50.28;43.55;;;16.80;99.90;;;;;;5030722;28;20072;-82
2023/10/10 08:13:10;;;;;;;54.10;43.75;;;16.80;99.90;;;;;;5022377;28;20050;-79
2023/10/10 08:23:31;;;;;;;49.90;42.70;;;16.90;99.90;;;;;;5015092;28;20053;-80
2023/10/10 08:25:57;;;;;;;52.35;43.42;;;16.90;99.90;;;;;;5023796;28;20052;-80
2023/10/10 08:28:23;;;;;;;61.60;48.67;;;16.90;99.90;;;;;;5017727;28;20050;-80
2023/10/10 08:30:52;;;;;;;58.95;49.25;;;17.00;99.90;;;;;;5019681;28;20045;-82
2023/10/10 08:33:18;;;;;;;57.85;48.20;;;17.00;99.90;;;;;;5017598;28;20045;-81
2023/10/10 08:35:46;;;;;;;62.53;50.65;;;17.00;99.90;;;;;;5009120;28;20057;-81
2023/10/10 08:38:19;;;;;;;64.68;50.55;;;17.10;99.90;;;;;;5017434;28;20062;-81
2023/10/10 08:40:57;;;;;;;62.33;50.67;;;17.10;99.90;;;;;;5021371;28;20128;-78
2023/10/10 08:43:31;;;;;;;60.35;51.65;;;17.10;99.90;;;;;;5019507;28;20447;-80
2023/10/10 08:45:58;;;;;;;60.25;50.92;;;17.10;99.90;;;;;;5028477;28;20056;-81
2023/10/10 08:48:27;;;;;;;61.60;49.35;;;17.10;99.90;;;;;;5038905;28;20041;-81
2023/10/10 08:51:03;;;;;;;60.33;49.53;;;17.00;99.90;;;;;;5032526;28;20045;-82
2023/10/10 08:53:30;;;;;;;61.90;49.65;;;17.00;99.90;;;;;;5013589;28;20063;-82
2023/10/10 08:55:56;;;;;;;57.60;47.58;;;17.00;99.90;;;;;;5027547;28;20126;-81
2023/10/10 08:58:22;;;;;;;57.28;48.78;;;17.00;99.90;;;;;;5023898;28;20045;-81
2023/10/10 09:00:49;;;;;;;61.22;51.35;;;17.10;99.90;;;;;;5037174;28;20041;-84
2023/10/10 09:03:15;;;;;;;62.30;51.30;;;17.10;99.90;;;;;;5018475;28;20532;-86
2023/10/10 09:05:41;;;;;;;61.08;50.85;;;17.20;99.90;;;;;;5018916;28;20038;-86
2023/10/10 09:08:16;;;;;;;57.03;48.97;;;17.20;99.90;;;;;;5013825;28;20072;-86
2023/10/10 09:10:47;;;;;;;62.88;52.60;;;17.30;99.90;;;;;;5010593;28;20129;-85
2023/10/10 09:13:13;;;;;;;58.80;50.15;;;17.30;99.90;;;;;;5011284;28;20131;-86
2023/10/10 09:15:54;;;;;;;56.45;49.97;;;17.30;99.90;;;;;;5012640;28;20125;-86
2023/10/10 09:18:25;;;;;;;56.88;48.78;;;17.40;99.90;;;;;;5013569;28;20504;-86
2023/10/10 09:20:53;;;;;;;59.40;50.22;;;17.50;99.90;;;;;;5022314;28;20101;-86
2023/10/10 09:23:22;;;;;;;55.50;49.20;;;17.50;99.90;;;;;;5009691;28;20068;-86
2023/10/10 09:25:57;;;;;;;57.63;48.47;;;17.60;99.90;;;;;;5008343;28;20038;-86
2023/10/10 09:28:30;;;;;;;56.78;48.78;;;17.60;99.90;;;;;;5018558;28;20175;-86
2023/10/10 09:31:03;;;;;;;56.10;48.72;;;17.70;99.90;;;;;;5013379;28;20107;-86
2023/10/10 09:33:33;;;;;;;56.08;48.92;;;17.70;99.90;;;;;;5010138;28;20081;-86
2023/10/10 09:36:15;;;;;;;59.00;48.05;;;17.70;99.90;;;;;;5017115;28;20068;-86
2023/10/10 09:38:45;;;;;;;52.92;47.28;;;17.80;99.90;;;;;;5025012;28;20053;-84
2023/10/10 09:41:36;;;;;;;51.70;46.30;;;17.80;99.90;;;;;;5022003;28;21436;-85
2023/10/10 10:09:14;;;;;;;49.80;44.22;;;18.40;99.90;;;;;;5020597;28;20089;-80
2023/10/10 10:12:08;;;;;;;48.70;43.58;;;18.50;99.90;;;;;;5018272;28;20046;-77
2023/10/10 10:14:47;;;;;;;50.25;43.42;;;18.50;99.90;;;;;;5015638;28;20075;-75
2023/10/10 10:17:23;;;;;;;49.53;43.30;;;18.50;99.90;;;;;;5017572;28;20050;-82
2023/10/10 10:19:49;;;;;;;47.87;41.33;;;18.70;99.90;;;;;;5012245;28;20072;-74
2023/10/10 10:22:17;;;;;;;49.88;42.35;;;18.70;99.90;;;;;;5023912;28;20073;-78
2023/10/10 10:24:45;;;;;;;50.22;42.53;;;18.70;99.90;;;;;;5010248;28;20112;-80
2023/10/10 10:27:25;;;;;;;46.63;40.63;;;18.80;99.90;;;;;;5019129;28;20061;-78
2023/10/10 10:29:55;;;;;;;49.22;40.42;;;18.80;99.90;;;;;;5021327;28;20107;-80
2023/10/10 10:32:24;;;;;;;47.38;40.70;;;18.90;99.90;;;;;;5025328;28;20481;-84
2023/10/10 10:34:57;;;;;;;46.33;38.92;;;18.90;99.90;;;;;;5022725;28;20091;-79
2023/10/10 10:37:24;;;;;;;47.80;40.03;;;18.90;99.90;;;;;;5014508;28;20839;-83
2023/10/10 10:42:46;;;;;;;44.67;38.65;;;19.00;99.90;;;;;;5011961;28;19925;-81
2023/10/10 10:45:37;;;;;;;45.03;39.17;;;19.10;99.90;;;;;;5012874;28;20056;-84
2023/10/10 10:48:07;;;;;;;44.70;39.17;;;19.10;99.90;;;;;;5013261;28;20056;-84
2023/10/10 10:50:40;;;;;;;42.85;37.75;;;19.10;99.90;;;;;;5016732;28;20045;-86
2023/10/10 10:53:31;;;;;;;44.42;38.00;;;19.10;99.90;;;;;;5024086;28;20037;-88
2023/10/10 10:59:12;;;;;;;44.08;37.40;;;19.20;99.90;;;;;;5010686;28;20057;-85
2023/10/10 11:01:45;;;;;;;44.63;36.45;;;19.20;99.90;;;;;;5041329;28;20099;-87
2023/10/10 11:04:18;;;;;;;48.60;37.22;;;19.30;99.90;;;;;;5025523;28;20060;-84
2023/10/10 11:06:51;;;;;;;42.95;37.40;;;19.40;99.90;;;;;;5017934;28;20124;-87
2023/10/10 11:09:28;;;;;;;42.70;37.00;;;19.40;99.90;;;;;;5019808;28;20077;-89
2023/10/10 11:12:04;;;;;;;75.15;36.17;;;19.50;99.90;;;;;;5024322;28;20712;-86
2023/10/10 11:14:44;;;;;;;37.45;32.35;;;19.60;99.90;;;;;;5021734;28;20138;-81
2023/10/10 11:17:18;;;;;;;40.78;33.75;;;19.70;99.90;;;;;;5013625;28;20057;-82
2023/10/10 11:19:46;;;;;;;40.05;32.75;;;19.80;99.90;;;;;;5012225;28;20042;-81
2023/10/10 11:22:38;;;;;;;41.50;33.15;;;19.80;99.90;;;;;;5023902;28;20052;-82
2023/10/10 11:25:11;;;;;;;38.60;33.60;;;19.90;99.90;;;;;;5010713;28;20064;-83
2023/10/10 11:27:48;;;;;;;39.83;32.53;;;19.90;99.90;;;;;;5025132;28;20472;-82
2023/10/10 11:30:24;;;;;;;;;;;20.00;99.90;;;;;;5019949;28;20049;-83
2023/10/10 11:33:16;;;;;;;34.58;29.73;;;20.10;99.90;;;;;;5017231;28;19917;-81
2023/10/10 11:36:01;;;;;;;36.72;30.60;;;20.20;99.90;;;;;;5017807;28;20053;-75
2023/10/10 11:38:36;;;;;;;36.47;29.35;;;20.20;99.90;;;;;;5022368;28;20547;-81
2023/10/10 11:41:10;;;;;;;34.85;28.17;;;20.30;99.90;;;;;;5019029;28;20049;-76
2023/10/10 11:43:38;;;;;;;34.95;28.27;;;20.40;99.90;;;;;;5021905;28;20056;-76
2023/10/10 11:46:05;;;;;;;35.60;28.95;;;20.40;99.90;;;;;;5009140;28;20568;-85
2023/10/10 11:48:41;;;;;;;33.25;27.70;;;20.50;99.90;;;;;;5022140;28;20061;-80
2023/10/10 11:51:14;;;;;;;34.72;28.08;;;20.50;99.90;;;;;;5024531;28;20046;-83
2023/10/10 11:53:40;;;;;;;34.22;28.38;;;20.60;99.90;;;;;;5028011;28;20046;-84
2023/10/10 11:56:11;;;;;;;32.00;26.45;;;20.60;99.90;;;;;;5020404;28;20134;-77
2023/10/10 11:58:37;;;;;;;30.08;25.55;;;20.60;99.90;;;;;;5016996;28;20049;-84
2023/10/10 12:01:06;;;;;;;29.60;25.05;;;20.70;99.90;;;;;;5012822;28;20054;-84
2023/10/10 12:06:14;;;;;;;31.48;27.27;;;20.80;99.90;;;;;;5023684;28;20042;-84
2023/10/10 12:08:44;;;;;;;29.80;24.50;;;20.80;99.90;;;;;;5020487;28;20041;-85
2023/10/10 12:11:19;;;;;;;30.33;23.85;;;20.90;99.90;;;;;;5020877;28;20033;-84
2023/10/10 12:13:46;;;;;;;30.85;23.90;;;20.90;99.90;;;;;;5020391;28;21869;-85
2023/10/10 12:16:11;;;;;;;29.75;24.92;;;21.00;99.90;;;;;;5013987;28;20049;-88
2023/10/10 12:18:52;;;;;;;27.77;23.05;;;21.00;99.90;;;;;;5020499;28;20056;-87
2023/10/10 12:21:20;;;;;;;26.98;22.02;;;21.10;99.90;;;;;;5008897;28;20046;-87
2023/10/10 12:23:56;;;;;;;26.95;23.08;;;21.20;99.90;;;;;;5008793;28;20049;-87
2023/10/10 12:26:33;;;;;;;27.13;21.38;;;21.30;99.90;;;;;;5017161;28;20049;-88
2023/10/10 12:28:59;;;;;;;27.98;21.88;;;21.30;99.90;;;;;;5012399;28;20054;-88
2023/10/10 12:31:24;;;;;;;26.30;22.58;;;21.40;99.90;;;;;;5008771;28;20050;-87
2023/10/10 12:33:53;;;;;;;32.60;23.60;;;21.40;99.90;;;;;;5023594;28;20071;-87
2023/10/10 12:36:22;;;;;;;24.83;21.27;;;21.40;99.90;;;;;;5015787;28;20073;-88
2023/10/10 12:38:48;;;;;;;27.77;22.35;;;21.40;99.90;;;;;;5014412;28;20126;-88
2023/10/10 12:41:20;;;;;;;32.22;23.63;;;21.30;99.90;;;;;;5024056;28;20049;-89
2023/10/10 12:43:46;;;;;;;29.63;23.48;;;21.30;99.90;;;;;;5016745;28;20132;-88
2023/10/10 12:46:16;;;;;;;26.75;22.05;;;21.30;99.90;;;;;;5026896;28;20033;-88
2023/10/10 12:48:42;;;;;;;27.63;21.40;;;21.30;99.90;;;;;;5013493;28;20107;-86
2023/10/10 12:51:12;;;;;;;23.70;21.13;;;21.30;99.90;;;;;;5023907;28;20030;-85
2023/10/10 12:53:39;;;;;;;28.40;21.55;;;21.30;99.90;;;;;;5025634;28;20057;-85
2023/10/10 12:56:10;;;;;;;25.35;21.02;;;21.30;99.90;;;;;;5017221;28;20068;-87
2023/10/10 12:58:42;;;;;;;27.02;21.10;;;21.30;99.90;;;;;;5010380;28;20057;-89
2023/10/10 13:01:12;;;;;;;23.40;20.13;;;21.30;99.90;;;;;;5017537;28;20116;-86
2023/10/10 13:03:38;;;;;;;23.67;19.95;;;21.30;99.90;;;;;;5022007;28;20076;-89
2023/10/10 13:06:04;;;;;;;23.95;20.27;;;21.30;99.90;;;;;;5016097;28;20434;-89
2023/10/10 13:08:54;;;;;;;25.43;19.53;;;21.30;99.90;;;;;;5017054;28;20056;-88
2023/10/10 13:11:32;;;;;;;22.92;19.23;;;21.20;99.90;;;;;;5015929;28;20991;-78
2023/10/10 13:14:08;;;;;;;22.42;19.23;;;21.20;99.90;;;;;;5021103;28;20110;-84
2023/10/10 13:19:09;;;;;;;21.85;19.02;;;21.00;99.90;;;;;;5018759;28;20184;-88
2023/10/10 13:21:36;;;;;;;21.23;18.08;;;20.90;99.90;;;;;;5020699;28;20099;-88
2023/10/10 13:24:03;;;;;;;;;;;20.90;99.90;;;;;;5025640;28;20045;-81
2023/10/10 13:26:29;;;;;;;24.77;18.60;;;20.90;99.90;;;;;;5013622;28;19925;-79
2023/10/10 13:28:54;;;;;;;21.67;18.20;;;20.80;99.90;;;;;;5023040;28;20446;-81
2023/10/10 13:31:29;;;;;;;23.67;17.52;;;20.80;99.90;;;;;;5022172;28;20061;-80
2023/10/10 13:33:55;;;;;;;21.08;17.70;;;20.80;99.90;;;;;;5018940;28;20049;-81
2023/10/10 13:36:20;;;;;;;19.92;16.65;;;20.80;99.90;;;;;;5012884;28;20038;-83
2023/10/10 13:38:50;;;;;;;20.65;17.33;;;20.80;99.90;;;;;;5017663;28;20059;-85
2023/10/10 13:41:27;;;;;;;33.42;17.73;;;20.70;99.90;;;;;;5024659;28;20080;-85
2023/10/10 13:43:59;;;;;;;22.45;16.38;;;20.70;99.90;;;;;;5018674;28;20041;-84
2023/10/10 13:46:26;;;;;;;20.13;16.23;;;20.70;99.90;;;;;;5019791;28;20187;-85
2023/10/10 13:48:52;;;;;;;25.65;16.70;;;20.60;99.90;;;;;;5022475;28;20042;-83
2023/10/10 13:51:18;;;;;;;24.88;16.98;;;20.60;99.90;;;;;;5020127;28;20049;-84
2023/10/10 13:53:45;;;;;;;23.42;17.25;;;20.60;99.90;;;;;;5029674;28;20374;-91
2023/10/10 13:56:13;;;;;;;;;;;20.60;99.90;;;;;;5017828;28;20045;-86
2023/10/10 13:58:46;;;;;;;20.70;15.18;;;20.60;99.90;;;;;;5021894;28;19921;-91
2023/10/10 14:03:46;;;;;;;19.85;14.93;;;20.60;99.90;;;;;;5026077;28;20386;-80
2023/10/10 14:06:16;;;;;;;17.55;14.43;;;20.70;99.90;;;;;;5011688;28;20498;-83
2023/10/10 14:08:49;;;;;;;20.02;14.27;;;20.70;99.90;;;;;;5023878;28;20781;-77
2023/10/10 14:11:20;;;;;;;19.27;14.77;;;20.80;99.90;;;;;;5022367;28;20427;-85
2023/10/10 14:13:50;;;;;;;19.70;14.82;;;20.80;99.90;;;;;;5017288;28;20057;-84
2023/10/10 14:16:16;;;;;;;17.73;13.77;;;20.80;99.90;;;;;;5003507;28;20476;-79
2023/10/10 14:18:46;;;;;;;18.58;13.93;;;20.80;99.90;;;;;;5024291;28;20214;-79
2023/10/10 14:21:12;;;;;;;18.65;15.02;;;20.80;99.90;;;;;;5027535;28;20116;-80
2023/10/10 14:23:41;;;;;;;18.85;13.25;;;20.80;99.90;;;;;;5018110;28;20050;-80
2023/10/10 14:26:13;;;;;;;20.80;13.75;;;20.80;99.90;;;;;;5022276;28;20395;-81
2023/10/10 14:29:04;;;;;;;18.08;13.90;;;20.80;99.90;;;;;;5019986;28;20081;-87
2023/10/10 14:31:33;;;;;;;20.15;14.27;;;20.70;99.90;;;;;;5016563;28;20049;-83
2023/10/10 14:34:00;;;;;;;18.90;13.45;;;20.70;99.90;;;;;;5021488;28;20702;-87
2023/10/10 14:36:39;;;;;;;20.10;13.77;;;20.70;99.90;;;;;;5023068;28;20111;-86
2023/10/10 14:39:08;;;;;;;20.42;13.77;;;20.60;99.90;;;;;;5019196;28;21477;-85
2023/10/10 14:41:34;;;;;;;18.88;14.07;;;20.60;99.90;;;;;;5015066;28;20045;-88
2023/10/10 14:44:01;;;;;;;17.63;14.25;;;20.60;99.90;;;;;;5018892;28;20045;-86
2023/10/10 14:46:31;;;;;;;15.93;13.10;;;20.60;99.90;;;;;;5028242;28;20053;-82
2023/10/10 14:49:17;;;;;;;18.55;13.52;;;20.60;99.90;;;;;;5020763;28;20377;-84
2023/10/10 14:51:48;;;;;;;18.88;12.77;;;20.60;99.90;;;;;;5022502;28;20049;-83
2023/10/10 14:54:17;;;;;;;16.20;12.50;;;20.60;99.90;;;;;;5016049;28;20105;-86
2023/10/10 14:56:49;;;;;;;20.05;12.70;;;20.60;99.90;;;;;;5025767;28;20703;-88
2023/10/10 14:59:24;;;;;;;18.08;12.13;;;20.60;99.90;;;;;;5017900;28;20489;-87
2023/10/10 15:01:50;;;;;;;15.40;11.95;;;20.60;99.90;;;;;;5023142;28;20033;-86
2023/10/10 15:04:21;;;;;;;14.77;11.77;;;20.60;99.90;;;;;;5004839;28;20133;-91
2023/10/10 15:06:53;;;;;;;15.77;12.05;;;20.70;99.90;;;;;;5022526;28;20057;-85
2023/10/10 15:09:20;;;;;;;14.68;12.00;;;20.60;99.90;;;;;;5024352;28;20094;-85
2023/10/10 15:11:47;;;;;;;15.15;11.52;;;20.60;99.90;;;;;;5022675;28;20142;-82
2023/10/10 15:14:13;;;;;;;17.77;12.05;;;20.50;99.90;;;;;;5024652;28;20038;-84
2023/10/10 15:16:40;;;;;;;16.23;12.05;;;20.50;99.90;;;;;;5014908;28;20552;-79
2023/10/10 15:19:07;;;;;;;18.02;13.27;;;20.50;99.90;;;;;;5015185;28;20520;-84
2023/10/10 15:21:37;;;;;;;;;;;20.40;99.90;;;;;;5015206;28;20050;-83
2023/10/10 15:24:04;;;;;;;17.00;13.10;;;20.40;99.90;;;;;;5020172;28;20008;-83
2023/10/10 15:26:32;;;;;;;18.30;13.68;;;20.40;99.90;;;;;;5008824;28;20413;-82
2023/10/10 15:28:59;;;;;;;16.63;13.02;;;20.40;99.90;;;;;;5019587;28;20124;-82
2023/10/10 15:31:29;;;;;;;20.00;13.40;;;20.40;99.90;;;;;;5012258;28;20081;-83
2023/10/10 15:33:57;;;;;;;25.10;13.15;;;20.40;99.90;;;;;;5035132;28;20042;-79
2023/10/10 15:36:30;;;;;;;16.52;12.93;;;20.30;99.90;;;;;;5023864;28;20155;-79
2023/10/10 15:39:05;;;;;;;20.52;13.50;;;20.30;99.90;;;;;;5021555;28;20582;-79
2023/10/10 15:41:32;;;;;;;17.42;13.13;;;20.20;99.90;;;;;;5018630;28;20068;-79